Tiempo atmosférico en la estación meteorológica de Villablino, León (958 m.)



Fecha
DESCASC
Temp. máxima en grados centígrados (hora)
DESCASC
Temp. mínima en grados centígrados (hora)
DESCASC
Temp. media en grados centígrados
DESCASC
Racha de viento máxima en m/sg (hora)
DESCASC
Velocidad máxima media en intervalos de 10 minutos(hora)
DESCASC
Precipitaciones diarias en mm
DESCASC
Precipitaciones de 00:00 a 06:00 en mm
DESCASC
Precipitaciones de 06:00 a 12:00 en mm
DESCASC
Precipitaciones de 12:00 a 18:00 en mm
DESCASC
Precipitaciones de 18:00 a 24:00 en mm
DESCASC
10-07-2020 28.3 (13:00) 10.4 (06:50) 19.3 10.28 (16:30) 6.11 (15:50) 0 0 0 0 0
09-07-2020 31.1 (14:10) 12.4 (07:20) 21.8 10 (17:20) 6.39 (17:40) 0 0 0 0 0
08-07-2020 34.3 (15:30) 11.7 (06:50) 23 11.11 (19:10) 5 (19:40) 0 0 0 0 0
07-07-2020 33 (17:20) 10.9 (07:10) 21.9 9.72 (19:10) 5.28 (19:10) 0 0 0 0 0
06-07-2020 28.2 (19:10) 11.9 (00:00) 20.1 6.67 (16:30) 3.61 (17:00) 0 0 0 0 0
05-07-2020 31 (14:50) 10.7 (00:00) 20.8 9.17 (20:20) 6.11 (20:20) 0 0 0 0 0
04-07-2020 29.5 (15:00) 4.9 (00:00) 17.2 7.22 (15:50) 3.61 (16:40) 0 0 0 0 0
03-07-2020 25.6 (15:00) 3.4 (07:20) 14.5 7.78 (19:40) 4.72 (18:30) 0 0 0 0 0
02-07-2020 19.2 (15:20) 10.1 (00:00) 14.7 9.17 (17:50) 5.56 (12:20) 0 0 0 0 0
01-07-2020 25.4 (15:00) 13.3 (00:00) 19.3 11.11 (14:30) 6.39 (14:20) 0 0 0 0 0
30-06-2020 30.8 (17:10) 9.8 (00:00) 20.3 10.56 (14:50) 5.28 (14:20) 10.8 0 0 0 10.8
29-06-2020 26.2 (14:10) 10.2 (00:00) 18.2 11.39 (16:30) 5.83 (16:30) 0 0 0 0 0
28-06-2020 22.4 (15:30) 8.8 (00:00) 15.6 8.61 (18:50) 5.56 (18:50) 0 0 0 0 0
27-06-2020 20.1 (18:20) 13 (00:00) 16.6 11.67 (16:40) 6.94 (16:40) 0.2 0 0 0.2 0
26-06-2020 23.6 (15:10) 12.8 (00:00) 18.2 12.5 (22:30) 7.5 (15:40) 0 0 0 0 0
25-06-2020 27.6 (13:40) 9.7 (00:00) 18.7 11.11 (20:30) 6.67 (15:30) 1.6 0.2 1.2 0.2 0
24-06-2020 31.4 (14:20) 10.7 (00:00) 21 11.11 (16:40) 6.11 (15:50) 5 0 0 0 5
23-06-2020 32.8 (17:40) 8.5 (00:00) 20.6 9.17 (16:30) 5.28 (16:10) 0 0 0 0 0
22-06-2020 31.2 (18:30) 6.4 (00:00) 18.8 7.22 (20:40) 3.89 (20:30) 0 0 0 0 0
21-06-2020 24.7 (12:20) 6.1 (00:00) 15.4 8.06 (17:50) 4.72 (13:50) 0 0 0 0 0
20-06-2020 25.9 (18:50) 5.1 (00:00) 15.5 11.39 (17:50) 6.67 (18:00) 0 0 0 0 0
19-06-2020 22.6 (15:00) 5.8 (00:00) 14.2 8.61 (18:40) 4.72 (19:00) 0 0 0 0 0
18-06-2020 19.3 (14:50) 5.4 (00:00) 12.3 8.06 (19:20) 4.72 (19:10) 0 0 0 0 0
17-06-2020 14.9 (14:10) 7.9 (00:00) 11.4 7.78 (18:50) 4.72 (18:30) 0.8 0.4 0.2 0 0.2
16-06-2020 15.9 (15:30) 8.9 (00:00) 12.4 11.67 (14:40) 6.11 (15:40) 3.4 0.2 2.6 0.6 0
15-06-2020 15.5 (16:00) 5.5 (00:00) 10.5 10.83 (15:20) 6.11 (15:10) 0.2 0.2 0 0 0
14-06-2020 13.5 (18:10) 5.2 (00:00) 9.3 8.61 (17:30) 4.72 (13:10) 0.4 0.2 0 0 0.2
13-06-2020 12.8 (17:30) 7.9 (00:00) 10.4 13.06 (14:40) 8.33 (14:00) 3.8 1.6 0.8 1 0.4
12-06-2020 12.7 (18:30) 6.3 (00:00) 9.5 13.06 (02:00) 6.67 (02:10) 23 9 2 10 2

Gráficas

Temp. máximas Temp. mínimas Temp. medias Precipitaciones Rachas de viento máximas Velocidades máximas media en intervalos de 10 minutos

Datos horarios

Fecha y hora oficial Temperatura (ºC) Velocidad del viento (km/h) Dirección del viento Racha (km/h) Dirección de racha Precipitación (mm) Presión (hPa) Tendencia (hPa) Humedad (%)
2020-07-11 23:00:00 17.1 6 Norte 8 Norte 0 -- -- 85
2020-07-11 22:00:00 18.4 3 Norte 9 Norte 0 -- -- 82
2020-07-11 21:00:00 20.1 7 Norte 12 Norte 0 -- -- 76
2020-07-11 20:00:00 23 5 Norte 21 Norte 0 -- -- 69
2020-07-11 19:00:00 25.2 12 Norte 21 Norte 0 -- -- 59
2020-07-11 18:00:00 30.1 5 Noroeste 14 Norte 0 -- -- 46
2020-07-11 17:00:00 31.3 8 Sur 13 Sudoeste 0 -- -- 40
2020-07-11 16:00:00 33.5 6 Sur 14 Sur 0 -- -- 34
2020-07-11 15:00:00 32 7 Sur 12 Sur 0 -- -- 37
2020-07-11 14:00:00 30.3 5 Sur 17 Sur 0 -- -- 40
2020-07-11 13:00:00 27.2 10 Sur 14 Sur 0 -- -- 48
2020-07-11 12:00:00 25.3 4 Sur 7 Sur 0 -- -- 47
2020-07-11 11:00:00 21.9 4 Sur 7 Sur 0 -- -- 51
2020-07-11 10:00:00 20.3 3 Sudeste 6 Este 0 -- -- 54
2020-07-11 09:00:00 16.5 2 Nordeste 5 Norte 0 -- -- 66
2020-07-11 08:00:00 10.4 4 Noroeste 6 Noroeste 0 -- -- 90
2020-07-11 07:00:00 9.2 4 Norte 8 Nordeste 0 -- -- 94
2020-07-11 06:00:00 9.3 3 Norte 7 Norte 0 -- -- 92
2020-07-11 05:00:00 10.3 5 Norte 8 Nordeste 0 -- -- 90
2020-07-11 04:00:00 10.7 4 Norte 8 Nordeste 0 -- -- 89
2020-07-11 03:00:00 11.6 5 Norte 10 Norte 0 -- -- 88
2020-07-11 02:00:00 12.6 3 Nordeste 12 Norte 0 -- -- 87
2020-07-11 01:00:00 13.3 7 Norte 14 Norte 0 -- -- 86
2020-07-11 00:00:00 14.5 9 Norte 20 Norte 0 -- -- 81
2020-07-10 23:00:00 14.7 10 Norte 21 Norte 0 -- -- 82
2020-07-10 22:00:00 15.2 11 Norte 20 Noroeste 0 -- -- 81
2020-07-10 21:00:00 16.4 10 Norte 22 Norte 0 -- -- 78
2020-07-10 20:00:00 18.1 14 Norte 25 Noroeste 0 -- -- 73
2020-07-10 19:00:00 22.6 14 Norte 29 Noroeste 0 -- -- 60
2020-07-10 18:00:00 24.2 11 Norte 26 Norte 0 -- -- 56
2020-07-10 17:00:00 24.4 14 Norte 37 Norte 0 -- -- 55
2020-07-10 16:00:00 25 21 Norte 36 Noroeste 0 -- -- 52
2020-07-10 15:00:00 25.2 21 Norte 36 Noroeste 0 -- -- 52
2020-07-10 14:00:00 24.6 14 Norte 28 Norte 0 -- -- 56
2020-07-10 13:00:00 28.3 4 Sudoeste 10 Sur 0 -- -- 40
2020-07-10 12:00:00 26.3 3 Sudeste 12 Norte 0 -- -- 47
2020-07-10 11:00:00 23.4 3 Sudoeste 9 Sudeste 0 -- -- 59
2020-07-10 10:00:00 20.4 3 Sur 6 Sur 0 -- -- 61
2020-07-10 09:00:00 17.3 0 Calma 9 Norte 0 -- -- 69
2020-07-10 08:00:00 13 4 Nordeste 8 Norte 0 -- -- 89
2020-07-10 07:00:00 10.5 3 Noroeste 11 Norte 0 -- -- 97
2020-07-10 06:00:00 11.2 3 Noroeste 10 Norte 0 -- -- 96
2020-07-10 05:00:00 11.7 5 Norte 9 Norte 0 -- -- 94
2020-07-10 04:00:00 12.1 4 Norte 10 Norte 0 -- -- 94
2020-07-10 03:00:00 12.7 4 Norte 9 Norte 0 -- -- 94
2020-07-10 02:00:00 13.7 4 Norte 9 Norte 0 -- -- 90
2020-07-10 01:00:00 14.9 6 Norte 9 Norte 0 -- -- 88
2020-07-10 00:00:00 15.8 4 Norte 13 Norte 0 -- -- 86
2020-07-09 23:00:00 17.7 11 Norte 22 Norte 0 -- -- 79
2020-07-09 22:00:00 20.3 9 Norte 26 Noroeste 0 -- -- 66
2020-07-09 21:00:00 20.8 13 Noroeste 30 Norte 0 -- -- 69
2020-07-09 20:00:00 22.1 16 Noroeste 35 Noroeste 0 -- -- 63
2020-07-09 19:00:00 25.6 15 Noroeste 34 Noroeste 0 -- -- 53
2020-07-09 18:00:00 25.1 21 Noroeste 36 Norte 0 -- -- 54
2020-07-09 17:00:00 27.5 21 Noroeste 34 Noroeste 0 -- -- 50
2020-07-09 16:00:00 28.2 19 Noroeste 31 Noroeste 0 -- -- 46
2020-07-09 15:00:00 29.9 11 Noroeste 20 Noroeste 0 -- -- 37
2020-07-09 14:00:00 30.9 4 Sudeste 13 Sur 0 -- -- 36
2020-07-09 13:00:00 28.6 6 Sur 9 Sur 0 -- -- 42
2020-07-09 12:00:00 25.9 5 Sur 8 Sur 0 -- -- 50
2020-07-09 11:00:00 24.4 3 Sur 6 Sudoeste 0 -- -- 48
2020-07-09 10:00:00 22 3 Sur 9 Nordeste 0 -- -- 55
2020-07-09 09:00:00 17.9 5 Norte 8 Norte 0 -- -- 66
2020-07-09 08:00:00 14.9 3 Norte 7 Noroeste 0 -- -- 76
2020-07-09 07:00:00 12.6 3 Norte 9 Norte 0 -- -- 85
2020-07-09 06:00:00 13.9 3 Noroeste 12 Nordeste 0 -- -- 82
2020-07-09 05:00:00 13.9 2 Norte 8 Norte 0 -- -- 80
2020-07-09 04:00:00 16.1 5 Norte 9 Noroeste 0 -- -- 70
2020-07-09 03:00:00 15.6 5 Norte 9 Norte 0 -- -- 75
2020-07-09 02:00:00 14.9 5 Norte 9 Norte 0 -- -- 80
2020-07-09 01:00:00 15.9 3 Norte 9 Norte 0 -- -- 78
2020-07-09 00:00:00 17.8 2 Sudeste 19 Norte 0 -- -- 77
2020-07-08 23:00:00 18.3 6 Norte 20 Nordeste 0 -- -- 74
2020-07-08 22:00:00 20.2 9 Norte 19 Norte 0 -- -- 61
2020-07-08 21:00:00 20.1 5 Norte 18 Norte 0 -- -- 71
2020-07-08 20:00:00 21.3 11 Este 40 Sudeste 0 -- -- 67
2020-07-08 19:00:00 24.3 12 Nordeste 26 Norte 0 -- -- 62
2020-07-08 18:00:00 27.8 14 Norte 23 Noroeste 0 -- -- 53
2020-07-08 17:00:00 29.3 15 Norte 28 Este 0 -- -- 48
2020-07-08 16:00:00 33.8 7 Sudeste 31 Sur 0 -- -- 28
2020-07-08 15:00:00 32.9 13 Sur 30 Sur 0 -- -- 28
2020-07-08 14:00:00 31.9 8 Nordeste 18 Este 0 -- -- 33
2020-07-08 13:00:00 30.1 12 Sudeste 28 Este 0 -- -- 39
2020-07-08 12:00:00 30 4 Este 17 Sudeste 0 -- -- 38
2020-07-08 11:00:00 25.3 5 Norte 10 Norte 0 -- -- 57
2020-07-08 10:00:00 22.2 3 Este 6 Sudeste 0 -- -- 61
2020-07-08 09:00:00 18.5 2 Nordeste 7 Norte 0 -- -- 72
2020-07-08 08:00:00 13.4 5 Norte 8 Norte 0 -- -- 92
2020-07-08 07:00:00 11.7 3 Norte 7 Norte 0 -- -- 96
2020-07-08 06:00:00 12.2 5 Norte 7 Norte 0 -- -- 97
2020-07-08 05:00:00 12.9 3 Norte 6 Noroeste 0 -- -- 97
2020-07-08 04:00:00 13.5 3 Norte 6 Nordeste 0 -- -- 96
2020-07-08 03:00:00 14.4 3 Norte 9 Norte 0 -- -- 93
2020-07-08 02:00:00 15.8 3 Nordeste 15 Noroeste 0 -- -- 88
2020-07-08 01:00:00 16.8 6 Norte 10 Norte 0 -- -- 85
2020-07-08 00:00:00 17.7 6 Norte 12 Norte 0 -- -- 83
2020-07-07 23:00:00 19.3 6 Norte 9 Norte 0 -- -- 80
2020-07-07 22:00:00 21.5 0 Calma 9 Nordeste 0 -- -- 76
2020-07-07 21:00:00 25 4 Noroeste 23 Oeste 0 -- -- 60
2020-07-07 20:00:00 25.9 14 Noroeste 35 Noroeste 0 -- -- 55
2020-07-07 19:00:00 28.7 18 Noroeste 31 Noroeste 0 -- -- 48
2020-07-07 18:00:00 30.2 12 Noroeste 20 Norte 0 -- -- 46
2020-07-07 17:00:00 32.4 9 Sur 23 Sur 0 -- -- 36
2020-07-07 16:00:00 31.3 15 Sur 28 Sur 0 -- -- 37
2020-07-07 15:00:00 30.9 13 Sur 26 Sur 0 -- -- 41
2020-07-07 14:00:00 29.9 11 Sur 17 Sur 0 -- -- 44
2020-07-07 13:00:00 28.1 10 Sur 18 Sur 0 -- -- 51
2020-07-07 12:00:00 25.8 5 Sur 7 Sur 0 -- -- 56
2020-07-07 11:00:00 24.6 3 Sur 7 Sur 0 -- -- 55
2020-07-07 10:00:00 22.7 3 Sudeste 5 Este 0 -- -- 58
2020-07-07 09:00:00 19.1 0 Calma 5 Norte 0 -- -- 68
2020-07-07 08:00:00 14 3 Norte 6 Norte 0 -- -- 91
2020-07-07 07:00:00 11 3 Norte 6 Norte 0 -- -- 96
2020-07-07 06:00:00 11.6 3 Norte 7 Norte 0 -- -- 96
2020-07-07 05:00:00 12.1 3 Norte 5 Norte 0 -- -- 95
2020-07-07 04:00:00 12.9 3 Norte 6 Norte 0 -- -- 93
2020-07-07 03:00:00 13.7 4 Norte 8 Nordeste 0 -- -- 89
2020-07-07 02:00:00 14.1 3 Norte 7 Norte 0 -- -- 88
2020-07-07 01:00:00 14.9 2 Nordeste 6 Noroeste 0 -- -- 85
2020-07-07 00:00:00 15.8 2 Noroeste 12 Norte 0 -- -- 81
2020-07-06 23:00:00 16.3 6 Norte 11 Norte 0 -- -- 81
2020-07-06 22:00:00 17.5 7 Norte 12 Nordeste 0 -- -- 78
2020-07-06 21:00:00 19.1 4 Norte 23 Norte 0 -- -- 75
2020-07-06 20:00:00 22.3 8 Norte 17 Norte 0 -- -- 62
2020-07-06 19:00:00 27.6 5 Norte 17 Norte 0 -- -- 56
2020-07-06 18:00:00 26.6 10 Norte 23 Norte 0 -- -- 55
2020-07-06 17:00:00 26.3 13 Norte 24 Norte 0 -- -- 57
2020-07-06 16:00:00 26.5 13 Norte 23 Noroeste 0 -- -- 59
2020-07-06 15:00:00 27.7 10 Norte 22 Noroeste 0 -- -- 55
2020-07-06 14:00:00 26.8 9 Norte 19 Norte 0 -- -- 56
2020-07-06 13:00:00 25.1 9 Norte 19 Norte 0 -- -- 59
2020-07-06 12:00:00 27.3 4 Sudeste 8 Sur 0 -- -- 50
2020-07-06 11:00:00 23.2 5 Sur 8 Sur 0 -- -- 60
2020-07-06 10:00:00 22.4 3 Sudeste 8 Norte 0 -- -- 60
2020-07-06 09:00:00 19.2 2 Norte 9 Norte 0 -- -- 69
2020-07-06 08:00:00 14.2 5 Norte 11 Norte 0 -- -- 86
2020-07-06 07:00:00 11.9 3 Norte 9 Norte 0 -- -- 95
2020-07-06 06:00:00 12.5 6 Nordeste 12 Nordeste 0 -- -- 96
2020-07-06 05:00:00 12.8 6 Norte 8 Norte 0 -- -- 96
2020-07-06 04:00:00 13.4 5 Noroeste 10 Norte 0 -- -- 94
2020-07-06 03:00:00 14.1 4 Noroeste 10 Norte 0 -- -- 91
2020-07-06 02:00:00 15.1 4 Norte 11 Nordeste 0 -- -- 90
2020-07-06 01:00:00 16.1 4 Norte 12 Norte 0 -- -- 89
2020-07-06 00:00:00 17.5 5 Norte 15 Noroeste 0 -- -- 86
2020-07-05 23:00:00 19.1 6 Norte 26 Noroeste 0 -- -- 80
2020-07-05 22:00:00 21.6 15 Noroeste 31 Noroeste 0 -- -- 69
2020-07-05 21:00:00 22.5 15 Noroeste 33 Noroeste 0 -- -- 68
2020-07-05 20:00:00 24.2 21 Noroeste 32 Noroeste 0 -- -- 62
2020-07-05 19:00:00 27.4 11 Noroeste 28 Noroeste 0 -- -- 56
2020-07-05 18:00:00 25.6 13 Noroeste 30 Noroeste 0 -- -- 59
2020-07-05 17:00:00 28.7 12 Noroeste 28 Norte 0 -- -- 52
2020-07-05 16:00:00 28.9 14 Noroeste 27 Norte 0 -- -- 49
2020-07-05 15:00:00 30.9 9 Noroeste 19 Norte 0 -- -- 42
2020-07-05 14:00:00 29.2 8 Sur 11 Sur 0 -- -- 44
2020-07-05 13:00:00 28.7 6 Sur 9 Sur 0 -- -- 47
2020-07-05 12:00:00 25.8 3 Sur 5 Sur 0 -- -- 48
2020-07-05 11:00:00 23.3 3 Sur 5 Sur 0 -- -- 57
2020-07-05 10:00:00 20.3 3 Sudeste 5 Sudeste 0 -- -- 63
2020-07-05 09:00:00 15.8 0 Calma 5 Norte 0 -- -- 79
2020-07-05 08:00:00 12.7 4 Norte 6 Norte 0 -- -- 90
2020-07-05 07:00:00 10.7 5 Norte 7 Norte 0 -- -- 96
2020-07-05 06:00:00 11.1 4 Norte 8 Norte 0 -- -- 96
2020-07-05 05:00:00 11.6 4 Norte 6 Norte 0 -- -- 95
2020-07-05 04:00:00 12.4 4 Norte 8 Norte 0 -- -- 94
2020-07-05 03:00:00 13.3 4 Norte 8 Norte 0 -- -- 91
2020-07-05 02:00:00 14.4 4 Norte 8 Norte 0 -- -- 85
2020-07-05 01:00:00 14.9 4 Norte 9 Norte 0 -- -- 86
2020-07-05 00:00:00 16.4 6 Norte 11 Norte 0 -- -- 82
2020-07-04 23:00:00 17.6 5 Norte 12 Norte 0 -- -- 77
2020-07-04 22:00:00 20.4 6 Norte 21 Noroeste 0 -- -- 64
2020-07-04 21:00:00 21.9 10 Noroeste 21 Oeste 0 -- -- 57
2020-07-04 20:00:00 22.8 6 Noroeste 15 Norte 0 -- -- 56
2020-07-04 19:00:00 27.1 9 Noroeste 20 Noroeste 0 -- -- 45
2020-07-04 18:00:00 27.2 9 Noroeste 23 Noroeste 0 -- -- 43
2020-07-04 17:00:00 27 12 Noroeste 24 Noroeste 0 -- -- 41
2020-07-04 16:00:00 27.2 12 Noroeste 26 Noroeste 0 -- -- 40
2020-07-04 15:00:00 29.5 4 Sur 12 Sudeste 0 -- -- 34
2020-07-04 14:00:00 26.3 6 Sur 11 Sur 0 -- -- 37
2020-07-04 13:00:00 24.2 5 Sur 8 Sur 0 -- -- 35
2020-07-04 12:00:00 22.6 3 Sudeste 6 Sudeste 0 -- -- 41
2020-07-04 11:00:00 18.6 5 Sur 8 Sur 0 -- -- 47
2020-07-04 10:00:00 16.9 3 Sudeste 6 Este 0 -- -- 53
2020-07-04 09:00:00 13.3 3 Nordeste 10 Norte 0 -- -- 57
2020-07-04 08:00:00 8 6 Norte 9 Norte 0 -- -- 78
2020-07-04 07:00:00 5 5 Norte 9 Norte 0 -- -- 92
2020-07-04 06:00:00 5.4 5 Norte 9 Noroeste 0 -- -- 92
2020-07-04 05:00:00 6.2 5 Norte 9 Norte 0 -- -- 92
2020-07-04 04:00:00 6.6 6 Norte 11 Norte 0 -- -- 91
2020-07-04 03:00:00 8.2 7 Norte 10 Norte 0 -- -- 88
2020-07-04 02:00:00 9.1 8 Norte 11 Norte 0 -- -- 87
2020-07-04 01:00:00 10.8 4 Norte 11 Norte 0 -- -- 88
2020-07-04 00:00:00 12.5 6 Norte 9 Nordeste 0 -- -- 86
2020-07-03 23:00:00 13.7 2 Noroeste 9 Norte 0 -- -- 85
2020-07-03 22:00:00 16.4 5 Este 23 Noroeste 0 -- -- 73
2020-07-03 21:00:00 18.1 14 Noroeste 27 Norte 0 -- -- 65
2020-07-03 20:00:00 19.1 15 Noroeste 28 Noroeste 0 -- -- 59
2020-07-03 19:00:00 22.7 16 Noroeste 28 Norte 0 -- -- 45
2020-07-03 18:00:00 23.3 14 Noroeste 24 Norte 0 -- -- 42
2020-07-03 17:00:00 23.4 12 Noroeste 26 Noroeste 0 -- -- 39
2020-07-03 16:00:00 23.4 10 Noroeste 22 Noroeste 0 -- -- 40
2020-07-03 15:00:00 25.6 5 Sudeste 12 Sur 0 -- -- 36
2020-07-03 14:00:00 22.2 6 Sur 8 Sur 0 -- -- 32
2020-07-03 13:00:00 20.5 4 Sur 7 Oeste 0 -- -- 44
2020-07-03 12:00:00 18.3 3 Sudeste 5 Sudeste 0 -- -- 52
2020-07-03 11:00:00 16 3 Sudeste 6 Sur 0 -- -- 55
2020-07-03 10:00:00 13.9 4 Sudeste 8 Sudeste 0 -- -- 61
2020-07-03 09:00:00 10 4 Norte 10 Norte 0 -- -- 69
2020-07-03 08:00:00 6.7 5 Norte 10 Norte 0 -- -- 81
2020-07-03 07:00:00 3.5 5 Norte 9 Nordeste 0 -- -- 93
2020-07-03 06:00:00 4.9 6 Nordeste 11 Norte 0 -- -- 93
2020-07-03 05:00:00 5.3 4 Norte 10 Norte 0 -- -- 91
2020-07-03 04:00:00 6.2 5 Norte 14 Nordeste 0 -- -- 89
2020-07-03 03:00:00 8.1 8 Norte 12 Norte 0 -- -- 82
2020-07-03 02:00:00 9.9 7 Norte 12 Noroeste 0 -- -- 76
2020-07-03 01:00:00 10.8 7 Nordeste 15 Noroeste 0 -- -- 78
2020-07-03 00:00:00 11.1 6 Noroeste 23 Noroeste 0 -- -- 74
2020-07-02 23:00:00 11.2 12 Noroeste 27 Noroeste 0 -- -- 77
2020-07-02 22:00:00 11.7 15 Noroeste 30 Noroeste 0 -- -- 75
2020-07-02 21:00:00 12.9 12 Noroeste 25 Noroeste 0 -- -- 75
2020-07-02 20:00:00 13.9 12 Noroeste 24 Noroeste 0 -- -- 73
2020-07-02 19:00:00 14.8 12 Norte 27 Norte 0 -- -- 69
2020-07-02 18:00:00 17.5 16 Noroeste 33 Noroeste 0 -- -- 63
2020-07-02 17:00:00 18 14 Norte 30 Norte 0 -- -- 57
2020-07-02 16:00:00 18.6 17 Noroeste 31 Noroeste 0 -- -- 56
2020-07-02 15:00:00 18.9 14 Noroeste 31 Noroeste 0 -- -- 59
2020-07-02 14:00:00 18.1 17 Noroeste 31 Noroeste 0 -- -- 60
2020-07-02 13:00:00 17.3 16 Noroeste 32 Norte 0 -- -- 64
2020-07-02 12:00:00 16.5 16 Norte 32 Noroeste 0 -- -- 67
2020-07-02 11:00:00 16 12 Noroeste 21 Noroeste 0 -- -- 68
2020-07-02 10:00:00 13.8 12 Noroeste 21 Noroeste 0 -- -- 75
2020-07-02 09:00:00 12.9 13 Noroeste 22 Noroeste 0 -- -- 79
2020-07-02 08:00:00 12.3 4 Norte 11 Noroeste 0 -- -- 90
2020-07-02 07:00:00 11.7 4 Norte 10 Noroeste 0 -- -- 95
2020-07-02 06:00:00 11.6 3 Noroeste 6 Noroeste 0 -- -- 97
2020-07-02 05:00:00 10.4 4 Norte 8 Norte 0 -- -- 97
2020-07-02 04:00:00 10.8 2 Norte 5 Norte 0 -- -- 96
2020-07-02 03:00:00 10.8 2 Norte 5 Norte 0 -- -- 96
2020-07-02 02:00:00 11.9 2 Oeste 6 Norte 0 -- -- 95
2020-07-02 01:00:00 12.7 2 Sudoeste 7 Sudoeste 0 -- -- 93
2020-07-02 00:00:00 14.2 3 Norte 8 Norte 0 -- -- 86
2020-07-01 23:00:00 15.2 5 Norte 18 Noroeste 0 -- -- 80
2020-07-01 22:00:00 16.9 13 Noroeste 26 Noroeste 0 -- -- 71
2020-07-01 21:00:00 18.2 17 Noroeste 32 Noroeste 0 -- -- 71
2020-07-01 20:00:00 19.4 17 Noroeste 30 Noroeste 0 -- -- 66
2020-07-01 19:00:00 21.2 15 Norte 31 Noroeste 0 -- -- 60
2020-07-01 18:00:00 21.6 16 Noroeste 39 Sur 0 -- -- 59
2020-07-01 17:00:00 24.3 17 Sur 32 Noroeste 0 -- -- 52
2020-07-01 16:00:00 22.3 20 Norte 39 Norte 0 -- -- 61
2020-07-01 15:00:00 25.4 10 Sur 40 Sur 0 -- -- 49
2020-07-01 14:00:00 23.1 14 Sur 28 Sudoeste 0 -- -- 59
2020-07-01 13:00:00 23 14 Sudoeste 26 Sudoeste 0 -- -- 62
2020-07-01 12:00:00 20.5 15 Sudoeste 23 Sudoeste 0 -- -- 66
2020-07-01 11:00:00 22.9 4 Sudeste 7 Sudoeste 0 -- -- 65
2020-07-01 10:00:00 21.6 3 Sudeste 6 Oeste 0 -- -- 65
2020-07-01 09:00:00 15.9 0 Calma 6 Norte 0 -- -- 85
2020-07-01 08:00:00 13.3 6 Norte 9 Norte 0 -- -- 90
2020-07-01 07:00:00 13.3 5 Norte 9 Norte 0 -- -- 93
2020-07-01 06:00:00 13.7 5 Norte 7 Norte 0 -- -- 97
2020-07-01 05:00:00 14 4 Norte 10 Norte 0 -- -- 98
2020-07-01 04:00:00 14.9 2 Norte 6 Norte 0 -- -- 99
2020-07-01 03:00:00 14.9 3 Norte 5 Norte 0 -- -- 99
2020-07-01 02:00:00 14.7 4 Norte 7 Norte 0 -- -- 99
2020-07-01 01:00:00 15.1 4 Noroeste 5 Norte 0 -- -- 99
2020-07-01 00:00:00 15.2 3 Norte 6 Norte 0.2 -- -- 98
2020-06-30 23:00:00 15.9 3 Nordeste 5 Norte 0.2 -- -- 97
2020-06-30 22:00:00 16.5 2 Oeste 5 Noroeste 0.6 -- -- 96
2020-06-30 21:00:00 16.9 -- -- -- -- 2 -- -- 95
2020-06-30 20:00:00 17.4 10 Sudoeste 29 Sur 7.4 -- -- 91
2020-06-30 19:00:00 25.1 13 Noroeste 27 Noroeste 0.4 -- -- 66
2020-06-30 18:00:00 24.4 13 Noroeste 33 Noroeste 0 -- -- 65
2020-06-30 17:00:00 29.6 7 Sur 32 Sur 0 -- -- 43
2020-06-30 16:00:00 29.9 13 Sur 35 Sur 0 -- -- 41
2020-06-30 15:00:00 28 16 Sur 38 Sur 0 -- -- 41
2020-06-30 14:00:00 27.8 16 Sur 27 Sur 0 -- -- 46
2020-06-30 13:00:00 27.7 10 Sur 22 Sur 0 -- -- 48
2020-06-30 12:00:00 25.5 3 Sur 5 Sur 0 -- -- 55
2020-06-30 11:00:00 22.8 3 Sur 6 Sudeste 0 -- -- 58
2020-06-30 10:00:00 18.3 0 Calma 5 Sur 0 -- -- 70
2020-06-30 09:00:00 18.1 0 Calma 5 Nordeste 0 -- -- 68
2020-06-30 08:00:00 13.5 4 Nordeste 6 Nordeste 0 -- -- 89
2020-06-30 07:00:00 9.8 3 Norte 8 Norte 0 -- -- 97
2020-06-30 06:00:00 10.2 4 Norte 6 Norte 0 -- -- 96
2020-06-30 05:00:00 10.7 4 Norte 6 Nordeste 0 -- -- 94
2020-06-30 04:00:00 11.6 5 Norte 9 Nordeste 0 -- -- 92
2020-06-30 03:00:00 12.5 5 Nordeste 10 Norte 0 -- -- 89
2020-06-30 02:00:00 12 5 Norte 10 Norte 0 -- -- 91
2020-06-30 01:00:00 13.2 6 Norte 9 Nordeste 0 -- -- 86
2020-06-30 00:00:00 15.3 6 Nordeste 14 Norte 0 -- -- 82
2020-06-29 23:00:00 16.2 4 Noroeste 10 Norte 0 -- -- 79
2020-06-29 22:00:00 18.8 5 Noroeste 28 Noroeste 0 -- -- 65
2020-06-29 21:00:00 20.4 13 Noroeste 23 Noroeste 0 -- -- 58
2020-06-29 20:00:00 21.3 14 Noroeste 26 Noroeste 0 -- -- 50
2020-06-29 19:00:00 24.5 13 Noroeste 31 Norte 0 -- -- 50
2020-06-29 18:00:00 24.5 18 Noroeste 33 Noroeste 0 -- -- 51
2020-06-29 17:00:00 24.2 21 Noroeste 41 Noroeste 0 -- -- 55
2020-06-29 16:00:00 24.6 18 Noroeste 31 Noroeste 0 -- -- 51
2020-06-29 15:00:00 24.9 16 Noroeste 26 Noroeste -- -- -- 45
2020-06-29 14:00:00 26 5 Sur 8 Sur 0 -- -- 36
2020-06-29 13:00:00 24.4 6 Sur 9 Sur 0 -- -- 39
2020-06-29 12:00:00 22.2 6 Sur 7 Sur 0 -- -- 56
2020-06-29 11:00:00 20.7 4 Sur 8 Sudeste 0 -- -- 63
2020-06-29 10:00:00 19.5 3 Sur 6 Sur 0 -- -- 65
2020-06-29 09:00:00 17.4 3 Norte 6 Norte 0 -- -- 67
2020-06-29 08:00:00 13.3 5 Nordeste 9 Norte 0 -- -- 79
2020-06-29 07:00:00 10.3 6 Norte 9 Norte 0 -- -- 93
2020-06-29 06:00:00 11.7 4 Nordeste 10 Norte 0 -- -- 89
2020-06-29 05:00:00 13.2 3 Norte 9 Norte 0 -- -- 93
2020-06-29 04:00:00 13 4 Norte 6 Norte 0 -- -- 95
2020-06-29 03:00:00 13.5 0 Calma 8 Norte 0 -- -- 94
2020-06-29 02:00:00 14 2 Sudoeste 8 Sur 0 -- -- 94
2020-06-29 01:00:00 14 4 Sur 9 Sudoeste 0 -- -- 92
2020-06-29 00:00:00 14.5 2 Norte 9 Norte 0 -- -- 90
2020-06-28 23:00:00 16.1 3 Noroeste 23 Norte 0 -- -- 82
2020-06-28 22:00:00 16.8 12 Norte 23 Noroeste 0 -- -- 80
2020-06-28 21:00:00 18 13 Noroeste 27 Noroeste 0 -- -- 76
2020-06-28 20:00:00 19.1 14 Noroeste 30 Noroeste 0 -- -- 74
2020-06-28 19:00:00 19.6 19 Noroeste 31 Noroeste 0 -- -- 70
2020-06-28 18:00:00 19.9 11 Noroeste 30 Norte 0 -- -- 67
2020-06-28 17:00:00 20.7 13 Noroeste 25 Noroeste 0 -- -- 70
2020-06-28 16:00:00 21.2 6 Oeste 21 Sudoeste 0 -- -- 69
2020-06-28 15:00:00 22 12 Sur 19 Sur 0 -- -- 64
2020-06-28 14:00:00 20.4 12 Sudoeste 21 Sudoeste 0 -- -- 68
2020-06-28 13:00:00 20.5 10 Sudoeste 20 Sudoeste 0 -- -- 66
2020-06-28 12:00:00 21.7 5 Sur 9 Sur 0 -- -- 64
2020-06-28 11:00:00 18.9 3 Sur 8 Sudoeste 0 -- -- 67
2020-06-28 10:00:00 17.1 3 Sur 5 Noroeste 0 -- -- 72
2020-06-28 09:00:00 11.5 3 Norte 5 Noroeste 0 -- -- 92
2020-06-28 08:00:00 9.7 3 Norte 6 Norte 0 -- -- 97
2020-06-28 07:00:00 8.8 3 Norte 6 Norte 0 -- -- 98
2020-06-28 06:00:00 9.8 3 Nordeste 6 Noroeste 0 -- -- 98
2020-06-28 05:00:00 9.3 2 Norte 6 Norte 0 -- -- 98
2020-06-28 04:00:00 9.7 4 Norte 6 Norte 0 -- -- 98
2020-06-28 03:00:00 10 5 Norte 6 Norte 0 -- -- 97
2020-06-28 02:00:00 10.7 4 Norte 8 Norte 0 -- -- 96
2020-06-28 01:00:00 11.5 3 Noroeste 6 Noroeste 0 -- -- 96
2020-06-28 00:00:00 13 2 Nordeste 5 Norte 0 -- -- 92
2020-06-27 23:00:00 14.5 3 Sudoeste 12 Sudoeste 0 -- -- 87
2020-06-27 22:00:00 15.8 6 Sudoeste 31 Sur 0 -- -- 83
2020-06-27 21:00:00 17.4 4 Noroeste 17 Oeste 0 -- -- 79
2020-06-27 20:00:00 17.8 2 Oeste 32 Sur 0 -- -- 76
2020-06-27 19:00:00 18.9 21 Sur 41 Sur 0 -- -- 74
2020-06-27 18:00:00 18.8 21 Sur 40 Sudoeste 0 -- -- 74
2020-06-27 17:00:00 18.7 22 Sur 42 Sur 0 -- -- 74
2020-06-27 16:00:00 19 19 Sur 36 Sur 0 -- -- 71
2020-06-27 15:00:00 19.5 12 Sur 33 Sur 0 -- -- 71
2020-06-27 14:00:00 16 19 Sudoeste 40 Sudoeste 0.2 -- -- 86
2020-06-27 13:00:00 17.1 6 Sur 21 Sudoeste 0 -- -- 77
2020-06-27 12:00:00 17.2 10 Sur 26 Sur 0 -- -- 77
2020-06-27 11:00:00 15.9 13 Sur 26 Sur 0 -- -- 84
2020-06-27 10:00:00 15.7 17 Sur 28 Sur 0 -- -- 82
2020-06-27 09:00:00 14.7 13 Sudoeste 24 Sur 0 -- -- 87
2020-06-27 08:00:00 14.3 3 Sudoeste 20 Sudoeste 0 -- -- 88
2020-06-27 07:00:00 13.6 6 Sudoeste 22 Sur 0 -- -- 91
2020-06-27 06:00:00 14.6 10 Sur 30 Sur 0 -- -- 83
2020-06-27 05:00:00 15.1 15 Sur 32 Sur 0 -- -- 80
2020-06-27 04:00:00 15.1 15 Sur 36 Sur 0 -- -- 78
2020-06-27 03:00:00 15.4 13 Sur 27 Sur 0 -- -- 78
2020-06-27 02:00:00 15.6 18 Sur 40 Sur 0 -- -- 81
2020-06-27 01:00:00 15.8 13 Sur 29 Sur 0 -- -- 77
2020-06-27 00:00:00 16.2 13 Sur 28 Sur 0 -- -- 76
2020-06-26 23:00:00 16.7 13 Sudoeste 45 Sur 0 -- -- 75
2020-06-26 22:00:00 17.5 17 Sur 39 Sur 0 -- -- 71
2020-06-26 21:00:00 18.3 7 Sudoeste 28 Sur 0 -- -- 64
2020-06-26 20:00:00 19.2 4 Norte 30 Sur 0 -- -- 61
2020-06-26 19:00:00 20.2 14 Sur 31 Sur 0 -- -- 59
2020-06-26 18:00:00 21.4 13 Sur 35 Sur 0 -- -- 51
2020-06-26 17:00:00 22 19 Sur 33 Sur 0 -- -- 50
2020-06-26 16:00:00 21.4 21 Sur 44 Sur 0 -- -- 52
2020-06-26 15:00:00 22.2 19 Sur 34 Sur 0 -- -- 54
2020-06-26 14:00:00 21.8 17 Sudoeste 30 Sudoeste 0 -- -- 53
2020-06-26 13:00:00 20.6 18 Sudoeste 32 Sur 0 -- -- 43
2020-06-26 12:00:00 20.9 11 Sur 22 Sur 0 -- -- 45
2020-06-26 11:00:00 18.8 18 Sur 33 Sur 0 -- -- 66
2020-06-26 10:00:00 17.8 15 Sudoeste 26 Sudoeste 0 -- -- 73
2020-06-26 09:00:00 17.3 10 Sur 15 Sur 0 -- -- 77
2020-06-26 08:00:00 14.3 2 Norte 5 Noroeste 0 -- -- 94
2020-06-26 07:00:00 13.4 2 Norte 14 Sudoeste 0 -- -- 95
2020-06-26 06:00:00 13.3 8 Sudoeste 12 Sudoeste 0 -- -- 94
2020-06-26 05:00:00 13.7 7 Sudoeste 11 Sur 0 -- -- 95
2020-06-26 04:00:00 13.7 2 Norte 5 Norte 0 -- -- 93
2020-06-26 03:00:00 13.9 3 Norte 5 Noroeste 0 -- -- 94
2020-06-26 02:00:00 13.7 4 Norte 8 Nordeste 0 -- -- 94
2020-06-26 01:00:00 13.3 3 Noroeste 6 Nordeste 0 -- -- 96
2020-06-26 00:00:00 13.9 4 Norte 8 Norte 0 -- -- 94
2020-06-25 23:00:00 15 3 Noroeste 12 Norte 0 -- -- 93
2020-06-25 22:00:00 16.7 4 Sudeste 23 Noroeste 0 -- -- 88
2020-06-25 21:00:00 17.9 15 Norte 40 Noroeste 0 -- -- 81
2020-06-25 20:00:00 20.5 13 Norte 29 Noroeste 0 -- -- 72
2020-06-25 19:00:00 22.2 9 Noroeste 26 Noroeste 0 -- -- 64
2020-06-25 18:00:00 23.3 19 Noroeste 33 Noroeste -- -- -- 62
2020-06-25 17:00:00 23.9 21 Noroeste 36 Noroeste 0 -- -- 61
2020-06-25 16:00:00 26.8 18 Sur 38 Sur 0.2 -- -- 47
2020-06-25 15:00:00 26.7 12 Sur 20 Sur 0 -- -- 54
2020-06-25 14:00:00 25.8 6 Sur 9 Sur 0 -- -- 57
2020-06-25 13:00:00 25 3 Oeste 8 Sur 0 -- -- 57
2020-06-25 12:00:00 23.9 5 Sur 7 Sudoeste 0.2 -- -- 60
2020-06-25 11:00:00 20.8 3 Sur 5 Sur 0.2 -- -- 71
2020-06-25 10:00:00 17.3 0 Calma 6 Noroeste 0.2 -- -- 79
2020-06-25 09:00:00 15.6 2 Nordeste 6 Norte 0.2 -- -- 89
2020-06-25 08:00:00 10.7 4 Norte 9 Norte 0.4 -- -- 99
2020-06-25 07:00:00 10.6 2 Norte 13 Norte 0 -- -- 99
2020-06-25 06:00:00 10 6 Norte 9 Norte 0 -- -- 99
2020-06-25 05:00:00 9.9 4 Norte 8 Norte 0 -- -- 99
2020-06-25 04:00:00 10.3 3 Noroeste 9 Norte 0 -- -- 98
2020-06-25 03:00:00 11 5 Norte 10 Norte 0 -- -- 98
2020-06-25 02:00:00 11.7 4 Norte 10 Nordeste 0.2 -- -- 97
2020-06-25 01:00:00 12.5 5 Norte 8 Norte 0 -- -- 96
2020-06-25 00:00:00 13.5 2 Nordeste 10 Norte 0.4 -- -- 93
2020-06-24 23:00:00 15 4 Nordeste 23 Nordeste 0.6 -- -- 85
2020-06-24 22:00:00 14.9 10 Norte 25 Este 1.2 -- -- 89
2020-06-24 21:00:00 15 5 Noroeste 10 Noroeste 2 -- -- 92
2020-06-24 20:00:00 16.3 8 Norte 25 Sur 0.4 -- -- 88
2020-06-24 19:00:00 16.6 6 Norte 19 Nordeste 0.4 -- -- 86
2020-06-24 18:00:00 18.8 13 Norte 33 Norte 0 -- -- 80
2020-06-24 17:00:00 24.1 16 Sudeste 40 Sur 0 -- -- 35
2020-06-24 16:00:00 25.9 9 Oeste 36 Sur 0 -- -- 35
2020-06-24 15:00:00 27.6 3 Sur 22 Sudoeste 0 -- -- 53
2020-06-24 14:00:00 30.8 11 Sudoeste 23 Oeste 0 -- -- 38
2020-06-24 13:00:00 28.7 5 Sur 12 Sur -- -- -- 48
2020-06-24 12:00:00 25.1 5 Sur 9 Sur 0 -- -- 58
2020-06-24 11:00:00 24.4 3 Sudeste 5 Sur 0 -- -- 56
2020-06-24 10:00:00 21.6 2 Sur 5 Sur 0 -- -- 59
2020-06-24 09:00:00 18.6 0 Calma 5 Este 0 -- -- 69
2020-06-24 08:00:00 13.8 3 Norte 5 Norte 0 -- -- 87
2020-06-24 07:00:00 10.7 4 Norte 6 Norte 0 -- -- 97
2020-06-24 06:00:00 11.2 3 Nordeste 7 Norte 0 -- -- 97
2020-06-24 05:00:00 12 3 Norte 7 Norte 0 -- -- 96
2020-06-24 04:00:00 12.8 3 Norte 6 Norte 0 -- -- 95
2020-06-24 03:00:00 13.7 0 Calma 17 Noroeste 0 -- -- 94
2020-06-24 02:00:00 15.1 8 Norte 15 Norte 0 -- -- 90
2020-06-24 01:00:00 14.9 4 Norte 8 Norte 0 -- -- 92
2020-06-24 00:00:00 16.3 4 Norte 8 Norte 0 -- -- 90
2020-06-23 23:00:00 17.6 4 Noroeste 10 Norte 0 -- -- 92
2020-06-23 22:00:00 19.1 2 Este 7 Sudoeste 0 -- -- 88
2020-06-23 21:00:00 21.5 3 Noroeste 12 Sur 0 -- -- 83
2020-06-23 20:00:00 25.4 5 Noroeste 19 Oeste 0 -- -- 57
2020-06-23 19:00:00 29.3 4 Noroeste 12 Sudoeste 0 -- -- 43
2020-06-23 18:00:00 32.6 4 Sur 26 Sur 0 -- -- 38
2020-06-23 17:00:00 31.1 17 Sur 33 Sur 0 -- -- 33
2020-06-23 16:00:00 30.9 15 Sur 32 Sur 0 -- -- 28
2020-06-23 15:00:00 31.3 14 Sur 30 Sur 0 -- -- 29
2020-06-23 14:00:00 30.2 6 Sur 15 Sur 0 -- -- 35
2020-06-23 13:00:00 27.5 3 Sur 6 Sur 0 -- -- 40
2020-06-23 12:00:00 25.1 3 Sur 6 Sur 0 -- -- 53
2020-06-23 11:00:00 22.7 3 Sur 5 Sur 0 -- -- 55
2020-06-23 10:00:00 20.5 2 Sudeste 4 Sudeste 0 -- -- 56
2020-06-23 09:00:00 18.1 3 Sudeste 5 Este 0 -- -- 64
2020-06-23 08:00:00 12.2 3 Nordeste 6 Nordeste 0 -- -- 89
2020-06-23 07:00:00 8.6 3 Norte 7 Norte 0 -- -- 98
2020-06-23 06:00:00 9 3 Nordeste 6 Norte 0 -- -- 97
2020-06-23 05:00:00 9.8 3 Norte 8 Norte 0 -- -- 96
2020-06-23 04:00:00 10.5 3 Norte 6 Norte 0 -- -- 96
2020-06-23 03:00:00 11.5 0 Calma 5 Norte 0 -- -- 96
2020-06-23 02:00:00 12.7 3 Norte 8 Norte 0 -- -- 94
2020-06-23 01:00:00 14.6 5 Nordeste 10 Norte 0 -- -- 85
2020-06-23 00:00:00 15.5 4 Norte 11 Nordeste 0 -- -- 90
2020-06-22 23:00:00 17.1 4 Noroeste 8 Nordeste 0 -- -- 83
2020-06-22 22:00:00 19.6 3 Noroeste 15 Norte 0 -- -- 72
2020-06-22 21:00:00 23.8 11 Noroeste 26 Noroeste 0 -- -- 60
2020-06-22 20:00:00 24.7 11 Noroeste 23 Este 0 -- -- 55
2020-06-22 19:00:00 30.8 9 Este 22 Este 0 -- -- 32
2020-06-22 18:00:00 29.6 12 Este 21 Este 0 -- -- 31
2020-06-22 17:00:00 30.2 9 Nordeste 24 Este 0 -- -- 29
2020-06-22 16:00:00 29.5 11 Este 25 Nordeste 0 -- -- 27
2020-06-22 15:00:00 29.4 5 Sur 13 Sudoeste 0 -- -- 37
2020-06-22 14:00:00 28 6 Sur 10 Sur 0 -- -- 41
2020-06-22 13:00:00 27 3 Sur 8 Sur 0 -- -- 43
2020-06-22 12:00:00 21.9 5 Sur 6 Sur 0 -- -- 53
2020-06-22 11:00:00 20.8 3 Sudeste 5 Sur 0 -- -- 57
2020-06-22 10:00:00 17.7 3 Sudeste 7 Sudoeste 0 -- -- 61
2020-06-22 09:00:00 15.1 3 Sudeste 5 Nordeste 0 -- -- 69
2020-06-22 08:00:00 9.7 4 Norte 8 Nordeste 0 -- -- 89
2020-06-22 07:00:00 6.4 4 Norte 7 Norte 0 -- -- 97
2020-06-22 06:00:00 7.2 4 Norte 7 Norte 0 -- -- 95
2020-06-22 05:00:00 7.8 3 Norte 12 Norte 0 -- -- 95
2020-06-22 04:00:00 8.2 4 Norte 9 Norte 0 -- -- 93
2020-06-22 03:00:00 9.3 4 Nordeste 9 Norte 0 -- -- 93
2020-06-22 02:00:00 10.3 4 Norte 9 Nordeste 0 -- -- 90
2020-06-22 01:00:00 11.7 3 Norte 12 Norte 0 -- -- 89
2020-06-22 00:00:00 13 5 Norte 9 Norte 0 -- -- 85
2020-06-21 23:00:00 15 4 Nordeste 12 Nordeste 0 -- -- 81
2020-06-21 22:00:00 17.5 6 Norte 22 Noroeste 0 -- -- 72
2020-06-21 21:00:00 18.6 11 Noroeste 26 Noroeste 0 -- -- 69
2020-06-21 20:00:00 20.2 10 Noroeste 19 Norte 0 -- -- 62
2020-06-21 19:00:00 22.3 11 Noroeste 25 Noroeste 0 -- -- 58
2020-06-21 18:00:00 21.3 13 Noroeste 29 Norte 0 -- -- 61
2020-06-21 17:00:00 21.7 12 Noroeste 28 Noroeste 0 -- -- 58
2020-06-21 16:00:00 22.4 17 Noroeste 26 Noroeste 0 -- -- 56
2020-06-21 15:00:00 22.6 14 Noroeste 28 Noroeste 0 -- -- 59
2020-06-21 14:00:00 21.8 13 Noroeste 29 Noroeste 0 -- -- 58
2020-06-21 13:00:00 22.5 7 Norte 14 Norte 0 -- -- 55
2020-06-21 12:00:00 21.7 5 Sur 9 Sur 0 -- -- 53
2020-06-21 11:00:00 19.3 3 Sur 8 Sur 0 -- -- 58
2020-06-21 10:00:00 15.9 5 Sur 8 Sur 0 -- -- 66
2020-06-21 09:00:00 14.4 3 Sudeste 8 Norte 0 -- -- 69
2020-06-21 08:00:00 9.7 3 Nordeste 8 Norte 0 -- -- 88
2020-06-21 07:00:00 6.6 2 Nordeste 6 Norte 0 -- -- 98
2020-06-21 06:00:00 7 4 Norte 6 Norte 0 -- -- 97
2020-06-21 05:00:00 7.8 3 Norte 6 Norte 0 -- -- 96
2020-06-21 04:00:00 8.8 2 Noroeste 8 Norte 0 -- -- 94
2020-06-21 03:00:00 9.7 4 Norte 9 Norte 0 -- -- 90
2020-06-21 02:00:00 10.5 4 Norte 7 Norte 0 -- -- 85
2020-06-21 01:00:00 11.2 0 Calma 6 Norte 0 -- -- 86
2020-06-21 00:00:00 12.1 4 Norte 6 Norte 0 -- -- 77
2020-06-20 23:00:00 12.7 4 Sur 7 Sudoeste 0 -- -- 79
2020-06-20 22:00:00 15.6 3 Sur 19 Noroeste 0 -- -- 64
2020-06-20 21:00:00 18.8 11 Noroeste 23 Norte 0 -- -- 46
2020-06-20 20:00:00 21.1 10 Noroeste 24 Noroeste 0 -- -- 37
2020-06-20 19:00:00 25.6 6 Nordeste 37 Sur 0 -- -- 44
2020-06-20 18:00:00 24.5 24 Sur 41 Sur 0 -- -- 41
2020-06-20 17:00:00 24.7 19 Sur 32 Sur 0 -- -- 38
2020-06-20 16:00:00 23.8 20 Sur 37 Sur 0 -- -- 34
2020-06-20 15:00:00 23.8 16 Sur 32 Sur 0 -- -- 34
2020-06-20 14:00:00 22.6 13 Sur 32 Sur 0 -- -- 38
2020-06-20 13:00:00 21.2 18 Sur 30 Sudoeste 0 -- -- 40
2020-06-20 12:00:00 19.8 15 Sudoeste 26 Sudoeste 0 -- -- 53
2020-06-20 11:00:00 17.8 3 Oeste 7 Noroeste 0 -- -- 62
2020-06-20 10:00:00 15 3 Sur 5 Sur 0 -- -- 68
2020-06-20 09:00:00 13.7 3 Sudeste 6 Sudeste -- -- -- 68
2020-06-20 08:00:00 8.1 3 Norte 6 Norte 0 -- -- 93
2020-06-20 07:00:00 5.2 2 Nordeste 6 Norte 0 -- -- 99
2020-06-20 06:00:00 5.5 3 Norte 6 Norte 0 -- -- 98
2020-06-20 05:00:00 6.3 4 Nordeste 7 Norte 0 -- -- 97
2020-06-20 04:00:00 7.1 4 Norte 7 Norte 0 -- -- 97
2020-06-20 03:00:00 7.7 2 Norte 5 Norte 0 -- -- 97
2020-06-20 02:00:00 8.8 3 Norte 7 Norte 0 -- -- 95
2020-06-20 01:00:00 9.8 5 Norte 8 Norte 0 -- -- 90
2020-06-20 00:00:00 10.6 4 Norte 6 Noroeste 0 -- -- 89
2020-06-19 23:00:00 12.2 4 Oeste 9 Sur 0 -- -- 81
2020-06-19 22:00:00 14.5 4 Norte 15 Noroeste 0 -- -- 70
2020-06-19 21:00:00 16.2 6 Noroeste 23 Norte 0 -- -- 61
2020-06-19 20:00:00 18.2 14 Norte 29 Noroeste 0 -- -- 49
2020-06-19 19:00:00 21.5 17 Norte 31 Norte 0 -- -- 42
2020-06-19 18:00:00 20.6 13 Noroeste 28 Norte 0 -- -- 43
2020-06-19 17:00:00 21.4 7 Noroeste 23 Norte 0 -- -- 45
2020-06-19 16:00:00 21.6 9 Sudoeste 22 Sur 0 -- -- 50
2020-06-19 15:00:00 22.6 13 Sudoeste 26 Sudoeste 0 -- -- 43
2020-06-19 14:00:00 20.5 13 Sudoeste 21 Sudoeste 0 -- -- 45
2020-06-19 13:00:00 20.3 7 Sur 18 Sudoeste 0 -- -- 46
2020-06-19 12:00:00 17.6 3 Sur 6 Sur 0 -- -- 53
2020-06-19 11:00:00 14.8 3 Sudeste 8 Este 0 -- -- 65
2020-06-19 10:00:00 11.2 4 Este 10 Norte 0 -- -- 79
2020-06-19 09:00:00 8.3 5 Nordeste 8 Norte 0 -- -- 86
2020-06-19 08:00:00 7.3 4 Norte 8 Norte 0 -- -- 90
2020-06-19 07:00:00 7 0 Calma 8 Norte 0 -- -- 92
2020-06-19 06:00:00 6.5 5 Norte 8 Norte 0 -- -- 93
2020-06-19 05:00:00 6.2 5 Norte 7 Nordeste 0 -- -- 95
2020-06-19 04:00:00 5.8 4 Norte 7 Norte 0 -- -- 95
2020-06-19 03:00:00 6.6 5 Norte 10 Norte 0 -- -- 92
2020-06-19 02:00:00 7.6 6 Norte 9 Norte 0 -- -- 90
2020-06-19 01:00:00 9.1 3 Norte 7 Nordeste 0 -- -- 87
2020-06-19 00:00:00 10.2 5 Norte 11 Noroeste 0 -- -- 85
2020-06-18 23:00:00 11.4 4 Norte 19 Noroeste 0 -- -- 81
2020-06-18 22:00:00 12.8 14 Noroeste 26 Noroeste 0 -- -- 75
2020-06-18 21:00:00 13.9 12 Noroeste 25 Noroeste 0 -- -- 71
2020-06-18 20:00:00 15.4 11 Noroeste 29 Noroeste 0 -- -- 65
2020-06-18 19:00:00 16 12 Noroeste 27 Norte 0 -- -- 61
2020-06-18 18:00:00 17.5 8 Norte 18 Noroeste 0 -- -- 53
2020-06-18 17:00:00 17.7 8 Noroeste 19 Norte 0 -- -- 52
2020-06-18 16:00:00 17.6 6 Noroeste 25 Noroeste 0 -- -- 49
2020-06-18 15:00:00 18.9 9 Noroeste 27 Noroeste 0 -- -- 47
2020-06-18 14:00:00 19 5 Noroeste 22 Noroeste 0 -- -- 45
2020-06-18 13:00:00 17.4 9 Norte 20 Norte 0 -- -- 51
2020-06-18 12:00:00 17.2 6 Sur 9 Sur 0 -- -- 55
2020-06-18 11:00:00 15.4 3 Sur 7 Sur 0 -- -- 60
2020-06-18 10:00:00 15.3 4 Sudeste 7 Sudeste 0 -- -- 62
2020-06-18 09:00:00 9.1 3 Norte 6 Norte 0 -- -- 82
2020-06-18 08:00:00 7.8 0 Calma 5 Sur 0 -- -- 90
2020-06-18 07:00:00 6.8 3 Norte 8 Norte 0 -- -- 92
2020-06-18 06:00:00 6.7 2 Norte 6 Norte 0 -- -- 91
2020-06-18 05:00:00 6.4 3 Norte 8 Norte 0 -- -- 91
2020-06-18 04:00:00 6.1 3 Norte 8 Norte 0 -- -- 93
2020-06-18 03:00:00 5.4 4 Norte 7 Norte 0 -- -- 95
2020-06-18 02:00:00 6.3 5 Nordeste 10 Nordeste 0 -- -- 95
2020-06-18 01:00:00 7.2 3 Noroeste 8 Noroeste 0 -- -- 92
2020-06-18 00:00:00 9.1 5 Norte 13 Noroeste 0 -- -- 86
2020-06-17 23:00:00 10.8 9 Noroeste 20 Noroeste 0.2 -- -- 77
2020-06-17 22:00:00 11.3 10 Noroeste 20 Oeste 0 -- -- 77
2020-06-17 21:00:00 11.9 10 Norte 25 Norte 0 -- -- 73
2020-06-17 20:00:00 12.3 10 Norte 23 Noroeste 0 -- -- 75
2020-06-17 19:00:00 12.6 15 Noroeste 28 Noroeste 0 -- -- 73
2020-06-17 18:00:00 14.1 16 Noroeste 25 Noroeste 0 -- -- 66
2020-06-17 17:00:00 14.7 7 Noroeste 14 Norte 0 -- -- 64
2020-06-17 16:00:00 13.5 7 Sur 27 Sur 0 -- -- 65
2020-06-17 15:00:00 13.8 14 Sur 22 Sur 0 -- -- 66
2020-06-17 14:00:00 14.8 6 Sudoeste 13 Sudoeste 0 -- -- 64
2020-06-17 13:00:00 14.4 2 Sudoeste 8 Sur 0 -- -- 63
2020-06-17 12:00:00 13.2 4 Sudoeste 9 Sudoeste 0.2 -- -- 74
2020-06-17 11:00:00 11.7 4 Sudoeste 7 Sudoeste 0 -- -- 80
2020-06-17 10:00:00 10.2 3 Nordeste 5 Noroeste 0 -- -- 88
2020-06-17 09:00:00 9 3 Norte 5 Este 0 -- -- 94
2020-06-17 08:00:00 8.3 2 Nordeste 7 Nordeste 0 -- -- 96
2020-06-17 07:00:00 8 3 Norte 6 Norte 0 -- -- 97
2020-06-17 06:00:00 8.1 3 Norte 5 Sudoeste 0 -- -- 96
2020-06-17 05:00:00 8.5 3 Norte 10 Noroeste 0.2 -- -- 96
2020-06-17 04:00:00 8.8 3 Norte 6 Norte 0 -- -- 96
2020-06-17 03:00:00 9 0 Calma 4 Norte -- -- -- 96
2020-06-17 02:00:00 9.2 2 Nordeste 6 Norte 0.2 -- -- 95
2020-06-17 01:00:00 9.6 2 Oeste 8 Sur 0 -- -- 95
2020-06-17 00:00:00 9.7 3 Sudoeste 10 Norte 0 -- -- 94
2020-06-16 23:00:00 9.8 7 Norte 17 Norte 0 -- -- 92
2020-06-16 22:00:00 11.1 9 Norte 19 Norte 0 -- -- 80
2020-06-16 21:00:00 12 7 Norte 16 Norte 0 -- -- 72
2020-06-16 20:00:00 13 6 Sudoeste 20 Sur 0 -- -- 69
2020-06-16 19:00:00 13.5 9 Norte 21 Sudoeste 0 -- -- 67
2020-06-16 18:00:00 14.6 9 Sudoeste 39 Noroeste 0 -- -- 65
2020-06-16 17:00:00 13.3 20 Noroeste 34 Noroeste 0 -- -- 70
2020-06-16 16:00:00 15.3 18 Norte 36 Norte 0.2 -- -- 61
2020-06-16 15:00:00 15.1 19 Norte 42 Norte 0 -- -- 63
2020-06-16 14:00:00 14.6 19 Norte 35 Noroeste 0 -- -- 71
2020-06-16 13:00:00 13.8 10 Sur 32 Sur 0.4 -- -- 80
2020-06-16 12:00:00 12.2 13 Sur 33 Sur 0.4 -- -- 86
2020-06-16 11:00:00 13.3 5 Oeste 21 Sudoeste 0.2 -- -- 87
2020-06-16 10:00:00 10.8 10 Sudoeste 20 Sudoeste 0.4 -- -- 93
2020-06-16 09:00:00 9.9 5 Este 23 Sur 0.6 -- -- 96
2020-06-16 08:00:00 9 3 Norte 9 Noroeste 1 -- -- 97
2020-06-16 07:00:00 8.9 4 Norte 6 Norte 0 -- -- 97
2020-06-16 06:00:00 9 2 Norte 10 Sudeste 0 -- -- 96
2020-06-16 05:00:00 9.1 5 Sur 7 Sur 0.2 -- -- 96
2020-06-16 04:00:00 9.1 2 Nordeste 9 Norte 0 -- -- 95
2020-06-16 03:00:00 9.8 3 Sudoeste 7 Oeste 0 -- -- 91
2020-06-16 02:00:00 10.3 0 Calma 9 Norte 0 -- -- 87
2020-06-16 01:00:00 10.4 4 Sudoeste 6 Sudoeste 0 -- -- 87
2020-06-16 00:00:00 11 4 Sudoeste 19 Noroeste 0 -- -- 84
2020-06-15 23:00:00 11.2 12 Norte 23 Norte 0 -- -- 80
2020-06-15 22:00:00 11.5 9 Norte 16 Oeste 0 -- -- 83
2020-06-15 21:00:00 12.4 8 Oeste 23 Sudoeste 0 -- -- 81
2020-06-15 20:00:00 13.5 9 Sudoeste 20 Sur 0 -- -- 73
2020-06-15 19:00:00 14.8 3 Nordeste 12 Sur 0 -- -- 67
2020-06-15 18:00:00 13.9 10 Sudoeste 32 Sur 0 -- -- 67
2020-06-15 17:00:00 14.9 17 Sur 30 Sudoeste 0 -- -- 64
2020-06-15 16:00:00 15.5 12 Sur 39 Sur 0 -- -- 67
2020-06-15 15:00:00 14.4 20 Sur 32 Sudoeste 0 -- -- 71
2020-06-15 14:00:00 13.5 14 Sur 28 Sudoeste 0 -- -- 74
2020-06-15 13:00:00 12.6 8 Sur 17 Sur 0 -- -- 77
2020-06-15 12:00:00 12.6 4 Este 10 Este 0 -- -- 82
2020-06-15 11:00:00 11.1 7 Sudoeste 12 Sudoeste 0 -- -- 88
2020-06-15 10:00:00 10.5 3 Norte 9 Norte 0 -- -- 90
2020-06-15 09:00:00 8.8 4 Norte 9 Norte 0 -- -- 96
2020-06-15 08:00:00 7.5 6 Norte 8 Norte 0 -- -- 98
2020-06-15 07:00:00 6.9 4 Norte 7 Norte 0 -- -- 98
2020-06-15 06:00:00 6.7 3 Norte 5 Noroeste 0 -- -- 98
2020-06-15 05:00:00 6.4 3 Norte 6 Norte 0.2 -- -- 99
2020-06-15 04:00:00 5.6 4 Norte 8 Norte 0 -- -- 98
2020-06-15 03:00:00 5.8 4 Norte 8 Norte 0 -- -- 98
2020-06-15 02:00:00 6 4 Norte 10 Norte 0 -- -- 98
2020-06-15 01:00:00 7.6 5 Norte 9 Norte 0 -- -- 97
2020-06-15 00:00:00 9.1 3 Noroeste 9 Sudeste 0 -- -- 96
2020-06-14 23:00:00 9.9 3 Este 5 Este 0.2 -- -- 95
2020-06-14 22:00:00 10.1 0 Calma 10 Sur 0 -- -- 94
2020-06-14 21:00:00 10.1 7 Noroeste 22 Norte 0 -- -- 90
2020-06-14 20:00:00 10.8 6 Norte 21 Norte 0 -- -- 90
2020-06-14 19:00:00 11.9 9 Noroeste 17 Noroeste 0 -- -- 82
2020-06-14 18:00:00 13.4 10 Sudoeste 31 Sur 0 -- -- 70
2020-06-14 17:00:00 12.2 9 Noroeste 15 Noroeste 0 -- -- 79
2020-06-14 16:00:00 12.5 9 Sudoeste 26 Sudoeste 0 -- -- 73
2020-06-14 15:00:00 11.2 15 Sur 30 Sur 0 -- -- 82
2020-06-14 14:00:00 12.5 12 Sur 30 Sur 0 -- -- 73
2020-06-14 13:00:00 12.1 16 Sur 31 Sur 0 -- -- 74
2020-06-14 12:00:00 11.6 12 Sur 26 Sudoeste 0 -- -- 72
2020-06-14 11:00:00 11.2 12 Sudoeste 30 Sur 0 -- -- 76
2020-06-14 10:00:00 9.9 4 Sur 9 Sur 0 -- -- 83
2020-06-14 09:00:00 7.6 0 Calma 7 Norte 0 -- -- 90
2020-06-14 08:00:00 6.8 4 Norte 8 Norte 0 -- -- 94
2020-06-14 07:00:00 6 3 Norte 8 Norte 0 -- -- 95
2020-06-14 06:00:00 5.8 3 Norte 5 Norte 0 -- -- 96
2020-06-14 05:00:00 5.2 3 Norte 8 Norte 0 -- -- 97
2020-06-14 04:00:00 5.8 6 Norte 9 Norte 0 -- -- 95
2020-06-14 03:00:00 6.7 4 Norte 8 Norte 0 -- -- 94
2020-06-14 02:00:00 7.9 3 Sudoeste 9 Norte 0.2 -- -- 93
2020-06-14 01:00:00 8.1 5 Norte 11 Sudoeste 0 -- -- 90
2020-06-14 00:00:00 9 0 Calma 6 Norte 0 -- -- 89
2020-06-13 23:00:00 9.2 0 Calma 12 Oeste 0 -- -- 86
2020-06-13 22:00:00 10 5 Noroeste 18 Sudoeste 0.2 -- -- 85
2020-06-13 21:00:00 11.3 3 Nordeste 26 Sur 0 -- -- 80
2020-06-13 20:00:00 12.3 15 Sudoeste 44 Sur 0.2 -- -- 71
2020-06-13 19:00:00 12.6 29 Sur 44 Sur 0 -- -- 73
2020-06-13 18:00:00 11.8 14 Sur 32 Sur 0.2 -- -- 76
2020-06-13 17:00:00 11.6 17 Sur 40 Sur 0 -- -- 77
2020-06-13 16:00:00 12 18 Sur 43 Sur 0.2 -- -- 76
2020-06-13 15:00:00 11.6 22 Sur 47 Sudoeste 0.2 -- -- 82
2020-06-13 14:00:00 12.2 30 Sur 45 Sur 0 -- -- 79
2020-06-13 13:00:00 11.1 24 Sur 40 Sur 0.4 -- -- 82
2020-06-13 12:00:00 9.3 14 Sudoeste 33 Sur 0 -- -- 89
2020-06-13 11:00:00 9.5 17 Sur 33 Sur 0.2 -- -- 87
2020-06-13 10:00:00 8.2 8 Sudoeste 20 Oeste 0.2 -- -- 91
2020-06-13 09:00:00 8.1 13 Sudoeste 35 Sur 0.2 -- -- 91
2020-06-13 08:00:00 8 11 Sudoeste 30 Sur 0.2 -- -- 90
2020-06-13 07:00:00 8.3 12 Sudoeste 30 Sur 0 -- -- 87
2020-06-13 06:00:00 8.3 7 Sur 30 Sur 0.2 -- -- 86
2020-06-13 05:00:00 8.1 4 Oeste 32 Sur 0.2 -- -- 89
2020-06-13 04:00:00 8.2 7 Oeste 20 Sudoeste 0.2 -- -- 88
2020-06-13 03:00:00 8.2 4 Oeste 17 Sudoeste 0.2 -- -- 90
2020-06-13 02:00:00 7.9 0 Calma 17 Sur 0.4 -- -- 92
2020-06-13 01:00:00 8.7 4 Noroeste 18 Sur 0.4 -- -- 85
2020-06-13 00:00:00 8.1 7 Norte 23 Sur 0.8 -- -- 93
2020-06-12 23:00:00 8.4 5 Oeste 24 Sur 0.6 -- -- 93
2020-06-12 22:00:00 8.4 5 Sudoeste 16 Norte 0.4 -- -- 91
2020-06-12 21:00:00 9.6 3 Noroeste 20 Norte 0.2 -- -- 79
2020-06-12 20:00:00 11.2 4 Norte 22 Norte 0 -- -- 68
2020-06-12 19:00:00 12.5 5 Norte 13 Noroeste 0 -- -- 72
2020-06-12 18:00:00 11.5 5 Nordeste 24 Noroeste 1 -- -- 73
2020-06-12 17:00:00 8.6 12 Norte 21 Noroeste 0.4 -- -- 87
2020-06-12 16:00:00 8.8 10 Norte 21 Norte 2.2 -- -- 84
2020-06-12 15:00:00 9.5 5 Norte 10 Norte 1.2 -- -- 84
2020-06-12 14:00:00 8.1 3 Este 21 Noroeste 1.6 -- -- 89
2020-06-12 13:00:00 6.7 9 Norte 32 Sur 3.6 -- -- 91
2020-06-12 12:00:00 7.3 17 Sur 40 Sudoeste 1 -- -- 88
2020-06-12 11:00:00 7.6 21 Sur 42 Sur 1 -- -- 85
2020-06-12 10:00:00 7 22 Sur 35 Sur 0 -- -- 87
2020-06-12 09:00:00 6.5 10 Sudoeste 28 Sur -- -- -- 87
2020-06-12 08:00:00 6.6 7 Oeste 26 Sur 0 -- -- 84
2020-06-12 07:00:00 6.4 9 Sudoeste 24 Noroeste 0 -- -- 90
2020-06-12 06:00:00 6.5 7 Norte 14 Norte 0.4 -- -- 88
2020-06-12 05:00:00 7.4 7 Oeste 25 Noroeste 0.8 -- -- 80
2020-06-12 04:00:00 7.6 12 Sudoeste 38 Sur 0.8 -- -- 87
2020-06-12 03:00:00 7.5 13 Sudoeste 47 Sur 1.4 -- -- 89
2020-06-12 02:00:00 7.3 23 Sur 47 Sur 3.2 -- -- 91
2020-06-12 01:00:00 6.9 19 Sudoeste 47 Sudoeste 2.4 -- -- 91
2020-06-12 00:00:00 6.6 18 Sudoeste 48 Sur 1.6 -- -- 90